sensor_id;sensor_type;location;lat;lon;timestamp;pressure;altitude;pressure_sealevel;temperature;humidity
52032;BME280;38044;45.148;39.604;2023-04-07T00:00:54;100911.22;;;10.10;88.72
52032;BME280;38044;45.148;39.604;2023-04-07T00:03:20;100891.72;;;9.95;88.75
52032;BME280;38044;45.148;39.604;2023-04-07T00:05:46;100924.09;;;10.13;88.87
52032;BME280;38044;45.148;39.604;2023-04-07T00:08:12;100778.59;;;9.17;89.01
52032;BME280;38044;45.148;39.604;2023-04-07T00:10:38;100884.78;;;9.83;89.20
52032;BME280;38044;45.148;39.604;2023-04-07T00:13:04;100913.41;;;10.03;89.18
52032;BME280;38044;45.148;39.604;2023-04-07T00:15:30;100868.25;;;9.66;89.18
52032;BME280;38044;45.148;39.604;2023-04-07T00:17:56;100768.53;;;8.99;89.59
52032;BME280;38044;45.148;39.604;2023-04-07T00:20:21;100882.75;;;9.65;89.84
52032;BME280;38044;45.148;39.604;2023-04-07T00:22:47;100916.22;;;9.83;90.32
52032;BME280;38044;45.148;39.604;2023-04-07T00:25:14;100760.25;;;8.90;90.29
52032;BME280;38044;45.148;39.604;2023-04-07T00:27:40;100893.97;;;9.72;90.23
52032;BME280;38044;45.148;39.604;2023-04-07T00:30:06;100874.97;;;9.63;90.33
52032;BME280;38044;45.148;39.604;2023-04-07T00:32:32;100785.63;;;9.13;89.98
52032;BME280;38044;45.148;39.604;2023-04-07T00:34:58;100912.41;;;9.94;90.03
52032;BME280;38044;45.148;39.604;2023-04-07T00:37:24;100880.78;;;9.81;90.10
52032;BME280;38044;45.148;39.604;2023-04-07T00:39:50;100887.78;;;9.82;89.90
52032;BME280;38044;45.148;39.604;2023-04-07T00:42:17;100876.53;;;9.75;89.99
52032;BME280;38044;45.148;39.604;2023-04-07T00:44:43;100907.03;;;9.94;90.19
52032;BME280;38044;45.148;39.604;2023-04-07T00:47:09;100904.38;;;9.84;90.11
52032;BME280;38044;45.148;39.604;2023-04-07T00:49:36;100775.22;;;8.96;90.38
52032;BME280;38044;45.148;39.604;2023-04-07T00:52:02;100902.53;;;9.84;90.78
52032;BME280;38044;45.148;39.604;2023-04-07T00:54:29;100920.22;;;9.90;90.60
52032;BME280;38044;45.148;39.604;2023-04-07T00:56:56;100899.06;;;9.79;90.00
52032;BME280;38044;45.148;39.604;2023-04-07T00:59:22;100907.59;;;9.91;90.38
52032;BME280;38044;45.148;39.604;2023-04-07T01:02:02;100897.97;;;9.85;90.26
52032;BME280;38044;45.148;39.604;2023-04-07T01:07:05;100873.94;;;9.59;90.13
52032;BME280;38044;45.148;39.604;2023-04-07T01:09:39;100908.50;;;9.71;90.40
52032;BME280;38044;45.148;39.604;2023-04-07T01:14:56;100909.88;;;9.58;90.48
52032;BME280;38044;45.148;39.604;2023-04-07T01:17:24;100877.22;;;9.41;90.78
52032;BME280;38044;45.148;39.604;2023-04-07T01:19:58;100911.75;;;9.63;90.73
52032;BME280;38044;45.148;39.604;2023-04-07T01:22:37;100793.47;;;8.84;90.17
52032;BME280;38044;45.148;39.604;2023-04-07T01:25:25;100874.06;;;9.29;89.82
52032;BME280;38044;45.148;39.604;2023-04-07T01:30:31;100930.28;;;9.59;89.66
52032;BME280;38044;45.148;39.604;2023-04-07T01:32:59;100891.16;;;9.43;89.52
52032;BME280;38044;45.148;39.604;2023-04-07T01:35:28;100794.28;;;8.90;89.50
52032;BME280;38044;45.148;39.604;2023-04-07T01:37:55;100902.38;;;9.55;89.34
52032;BME280;38044;45.148;39.604;2023-04-07T01:40:23;100906.66;;;9.61;89.22
52032;BME280;38044;45.148;39.604;2023-04-07T01:42:50;100776.66;;;8.68;89.18
52032;BME280;38044;45.148;39.604;2023-04-07T01:45:17;100791.09;;;8.72;89.48
52032;BME280;38044;45.148;39.604;2023-04-07T01:47:44;100914.22;;;9.49;89.74
52032;BME280;38044;45.148;39.604;2023-04-07T01:50:11;100909.66;;;9.50;89.97
52032;BME280;38044;45.148;39.604;2023-04-07T01:52:38;100769.97;;;8.61;89.83
52032;BME280;38044;45.148;39.604;2023-04-07T01:55:05;100756.59;;;8.55;89.70
52032;BME280;38044;45.148;39.604;2023-04-07T01:57:32;100877.53;;;9.34;88.84
52032;BME280;38044;45.148;39.604;2023-04-07T01:59:58;100900.03;;;9.38;88.57
52032;BME280;38044;45.148;39.604;2023-04-07T02:02:24;100912.94;;;9.41;88.23
52032;BME280;38044;45.148;39.604;2023-04-07T02:04:56;100918.03;;;9.33;88.14
52032;BME280;38044;45.148;39.604;2023-04-07T02:07:51;100786.88;;;8.51;88.45
52032;BME280;38044;45.148;39.604;2023-04-07T02:10:21;100872.00;;;8.90;88.59
52032;BME280;38044;45.148;39.604;2023-04-07T02:12:48;100790.09;;;8.32;88.40
52032;BME280;38044;45.148;39.604;2023-04-07T02:15:15;100911.69;;;9.03;88.25
52032;BME280;38044;45.148;39.604;2023-04-07T02:17:45;100781.03;;;8.13;88.31
52032;BME280;38044;45.148;39.604;2023-04-07T02:20:13;100916.50;;;9.01;88.41
52032;BME280;38044;45.148;39.604;2023-04-07T02:22:40;100914.41;;;8.93;88.37
52032;BME280;38044;45.148;39.604;2023-04-07T02:25:25;100924.00;;;9.09;88.70
52032;BME280;38044;45.148;39.604;2023-04-07T02:27:52;100887.84;;;8.86;88.27
52032;BME280;38044;45.148;39.604;2023-04-07T02:30:18;100922.94;;;9.10;88.23
52032;BME280;38044;45.148;39.604;2023-04-07T02:32:44;100886.25;;;8.80;87.87
52032;BME280;38044;45.148;39.604;2023-04-07T02:35:10;100914.09;;;9.05;87.99
52032;BME280;38044;45.148;39.604;2023-04-07T02:37:39;100887.31;;;8.89;87.95
52032;BME280;38044;45.148;39.604;2023-04-07T02:40:06;100811.25;;;8.34;88.06
52032;BME280;38044;45.148;39.604;2023-04-07T02:42:32;100878.50;;;8.73;87.83
52032;BME280;38044;45.148;39.604;2023-04-07T02:44:58;100918.69;;;8.99;88.00
52032;BME280;38044;45.148;39.604;2023-04-07T02:47:24;100862.44;;;8.63;88.33
52032;BME280;38044;45.148;39.604;2023-04-07T02:49:50;100790.38;;;8.21;88.22
52032;BME280;38044;45.148;39.604;2023-04-07T02:52:16;100925.34;;;9.07;87.75
52032;BME280;38044;45.148;39.604;2023-04-07T02:54:42;100933.41;;;9.01;88.00
52032;BME280;38044;45.148;39.604;2023-04-07T02:57:08;100871.25;;;8.74;87.92
52032;BME280;38044;45.148;39.604;2023-04-07T02:59:34;100906.38;;;8.88;88.11
52032;BME280;38044;45.148;39.604;2023-04-07T03:01:59;100947.63;;;9.07;88.02
52032;BME280;38044;45.148;39.604;2023-04-07T03:04:25;100933.63;;;9.15;88.02
52032;BME280;38044;45.148;39.604;2023-04-07T03:06:51;100909.00;;;9.03;87.98
52032;BME280;38044;45.148;39.604;2023-04-07T03:09:17;100942.75;;;9.24;88.16
52032;BME280;38044;45.148;39.604;2023-04-07T03:11:43;100943.56;;;9.30;87.94
52032;BME280;38044;45.148;39.604;2023-04-07T03:14:09;100788.50;;;8.31;87.48
52032;BME280;38044;45.148;39.604;2023-04-07T03:16:35;100951.31;;;9.37;87.43
52032;BME280;38044;45.148;39.604;2023-04-07T03:19:01;100912.72;;;9.17;87.62
52032;BME280;38044;45.148;39.604;2023-04-07T03:21:27;100806.69;;;8.55;87.07
52032;BME280;38044;45.148;39.604;2023-04-07T03:23:53;100958.00;;;9.44;86.57
52032;BME280;38044;45.148;39.604;2023-04-07T03:26:19;100829.75;;;8.56;86.09
52032;BME280;38044;45.148;39.604;2023-04-07T03:28:46;100949.72;;;9.25;86.14
52032;BME280;38044;45.148;39.604;2023-04-07T03:31:12;100795.19;;;8.34;85.97
52032;BME280;38044;45.148;39.604;2023-04-07T03:33:38;100969.00;;;9.38;85.81
52032;BME280;38044;45.148;39.604;2023-04-07T03:36:04;100942.22;;;9.17;86.11
52032;BME280;38044;45.148;39.604;2023-04-07T03:38:30;100957.78;;;9.20;86.32
52032;BME280;38044;45.148;39.604;2023-04-07T03:40:56;100981.38;;;9.29;86.60
52032;BME280;38044;45.148;39.604;2023-04-07T03:43:22;100840.47;;;8.51;86.54
52032;BME280;38044;45.148;39.604;2023-04-07T03:45:48;100926.44;;;9.00;86.79
52032;BME280;38044;45.148;39.604;2023-04-07T03:48:13;100979.78;;;9.28;87.12
52032;BME280;38044;45.148;39.604;2023-04-07T03:50:40;100936.91;;;9.07;87.08
52032;BME280;38044;45.148;39.604;2023-04-07T03:53:06;100971.16;;;9.36;87.55
52032;BME280;38044;45.148;39.604;2023-04-07T03:55:34;100963.63;;;9.38;87.26
52032;BME280;38044;45.148;39.604;2023-04-07T03:58:00;100971.13;;;9.46;86.98
52032;BME280;38044;45.148;39.604;2023-04-07T04:00:26;100837.25;;;8.64;86.72
52032;BME280;38044;45.148;39.604;2023-04-07T04:02:52;100840.19;;;8.57;86.38
52032;BME280;38044;45.148;39.604;2023-04-07T04:05:18;100973.56;;;9.42;87.02
52032;BME280;38044;45.148;39.604;2023-04-07T04:07:44;100932.59;;;9.16;87.18
52032;BME280;38044;45.148;39.604;2023-04-07T04:10:10;100938.97;;;9.36;87.08
52032;BME280;38044;45.148;39.604;2023-04-07T04:12:35;100961.47;;;9.45;86.64
52032;BME280;38044;45.148;39.604;2023-04-07T04:15:01;100964.66;;;9.57;86.67
52032;BME280;38044;45.148;39.604;2023-04-07T04:17:27;100943.19;;;9.52;86.33
52032;BME280;38044;45.148;39.604;2023-04-07T04:19:53;100936.22;;;9.51;85.81
52032;BME280;38044;45.148;39.604;2023-04-07T04:22:23;100970.50;;;9.69;85.35
52032;BME280;38044;45.148;39.604;2023-04-07T04:24:51;100972.38;;;9.74;85.00
52032;BME280;38044;45.148;39.604;2023-04-07T04:27:17;100981.44;;;9.88;84.95
52032;BME280;38044;45.148;39.604;2023-04-07T04:29:43;100853.22;;;9.00;83.92
52032;BME280;38044;45.148;39.604;2023-04-07T04:32:09;100984.94;;;9.89;84.25
52032;BME280;38044;45.148;39.604;2023-04-07T04:34:35;100981.97;;;9.90;84.56
52032;BME280;38044;45.148;39.604;2023-04-07T04:37:01;100977.97;;;9.83;83.96
52032;BME280;38044;45.148;39.604;2023-04-07T04:39:26;100965.09;;;9.80;83.78
52032;BME280;38044;45.148;39.604;2023-04-07T04:41:52;100954.66;;;9.73;84.44
52032;BME280;38044;45.148;39.604;2023-04-07T04:44:18;100894.41;;;9.40;84.06
52032;BME280;38044;45.148;39.604;2023-04-07T04:46:44;100952.00;;;9.68;83.83
52032;BME280;38044;45.148;39.604;2023-04-07T04:49:10;100851.34;;;9.11;83.22
52032;BME280;38044;45.148;39.604;2023-04-07T04:51:36;100965.66;;;9.77;83.07
52032;BME280;38044;45.148;39.604;2023-04-07T04:54:02;100977.41;;;9.91;83.28
52032;BME280;38044;45.148;39.604;2023-04-07T04:56:32;100974.16;;;9.99;82.99
52032;BME280;38044;45.148;39.604;2023-04-07T04:59:01;100856.88;;;9.30;82.09
52032;BME280;38044;45.148;39.604;2023-04-07T05:01:27;100965.03;;;9.90;82.21
52032;BME280;38044;45.148;39.604;2023-04-07T05:03:53;100817.56;;;9.05;82.44
52032;BME280;38044;45.148;39.604;2023-04-07T05:06:19;100899.69;;;9.55;82.38
52032;BME280;38044;45.148;39.604;2023-04-07T05:08:45;100977.59;;;10.05;82.68
52032;BME280;38044;45.148;39.604;2023-04-07T05:11:11;100978.34;;;10.15;82.48
52032;BME280;38044;45.148;39.604;2023-04-07T05:13:37;100859.50;;;9.50;82.04
52032;BME280;38044;45.148;39.604;2023-04-07T05:16:03;100980.19;;;10.30;81.62
52032;BME280;38044;45.148;39.604;2023-04-07T05:18:29;100961.38;;;10.25;81.65
52032;BME280;38044;45.148;39.604;2023-04-07T05:20:55;100968.53;;;10.40;81.56
52032;BME280;38044;45.148;39.604;2023-04-07T05:23:21;100793.38;;;9.15;81.08
52032;BME280;38044;45.148;39.604;2023-04-07T05:25:47;100979.53;;;10.44;81.62
52032;BME280;38044;45.148;39.604;2023-04-07T05:28:13;100988.38;;;10.49;81.74
52032;BME280;38044;45.148;39.604;2023-04-07T05:30:39;100986.22;;;10.51;81.74
52032;BME280;38044;45.148;39.604;2023-04-07T05:33:04;100990.69;;;10.61;81.26
52032;BME280;38044;45.148;39.604;2023-04-07T05:35:30;100949.69;;;10.45;80.64
52032;BME280;38044;45.148;39.604;2023-04-07T05:37:56;100969.88;;;10.43;80.51
52032;BME280;38044;45.148;39.604;2023-04-07T05:40:22;100959.72;;;10.34;80.99
52032;BME280;38044;45.148;39.604;2023-04-07T05:42:48;100847.56;;;9.66;81.06
52032;BME280;38044;45.148;39.604;2023-04-07T05:45:14;100847.84;;;9.70;80.85
52032;BME280;38044;45.148;39.604;2023-04-07T05:47:40;100845.41;;;9.68;80.85
52032;BME280;38044;45.148;39.604;2023-04-07T05:50:06;101005.41;;;10.74;81.29
52032;BME280;38044;45.148;39.604;2023-04-07T05:52:32;100967.00;;;10.68;80.99
52032;BME280;38044;45.148;39.604;2023-04-07T05:54:58;100989.03;;;10.70;80.57
52032;BME280;38044;45.148;39.604;2023-04-07T05:57:24;101012.78;;;10.92;80.66
52032;BME280;38044;45.148;39.604;2023-04-07T05:59:52;100979.53;;;10.78;80.74
52032;BME280;38044;45.148;39.604;2023-04-07T06:02:18;100957.56;;;10.71;80.94
52032;BME280;38044;45.148;39.604;2023-04-07T06:04:44;101008.84;;;11.14;80.94
52032;BME280;38044;45.148;39.604;2023-04-07T06:07:10;100866.78;;;10.28;80.15
52032;BME280;38044;45.148;39.604;2023-04-07T06:09:36;100987.34;;;11.09;80.71
52032;BME280;38044;45.148;39.604;2023-04-07T06:12:02;101007.69;;;11.20;80.78
52032;BME280;38044;45.148;39.604;2023-04-07T06:14:31;100984.28;;;10.91;79.96
52032;BME280;38044;45.148;39.604;2023-04-07T06:16:57;101023.34;;;11.13;80.44
52032;BME280;38044;45.148;39.604;2023-04-07T06:19:22;100914.28;;;10.38;80.59
52032;BME280;38044;45.148;39.604;2023-04-07T06:21:48;100966.97;;;10.73;80.42
52032;BME280;38044;45.148;39.604;2023-04-07T06:24:14;100890.72;;;10.25;79.78
52032;BME280;38044;45.148;39.604;2023-04-07T06:26:40;101022.91;;;11.05;79.95
52032;BME280;38044;45.148;39.604;2023-04-07T06:29:06;101016.47;;;11.01;79.49
52032;BME280;38044;45.148;39.604;2023-04-07T06:31:32;101019.59;;;11.14;79.51
52032;BME280;38044;45.148;39.604;2023-04-07T06:33:58;101017.31;;;11.26;79.48
52032;BME280;38044;45.148;39.604;2023-04-07T06:36:24;101020.91;;;11.45;79.30
52032;BME280;38044;45.148;39.604;2023-04-07T06:38:50;101011.63;;;11.57;78.78
52032;BME280;38044;45.148;39.604;2023-04-07T06:41:15;101001.63;;;11.81;77.78
52032;BME280;38044;45.148;39.604;2023-04-07T06:43:43;100836.16;;;11.07;76.56
52032;BME280;38044;45.148;39.604;2023-04-07T06:46:09;101018.47;;;12.16;76.32
52032;BME280;38044;45.148;39.604;2023-04-07T06:48:35;100932.09;;;11.64;75.92
52032;BME280;38044;45.148;39.604;2023-04-07T06:51:01;100905.78;;;11.37;75.64
52032;BME280;38044;45.148;39.604;2023-04-07T06:53:26;100924.53;;;11.47;76.80
52032;BME280;38044;45.148;39.604;2023-04-07T06:56:02;100945.72;;;11.73;77.27
52032;BME280;38044;45.148;39.604;2023-04-07T06:58:28;101017.03;;;12.05;76.59
52032;BME280;38044;45.148;39.604;2023-04-07T07:00:54;101039.31;;;12.10;76.40
52032;BME280;38044;45.148;39.604;2023-04-07T07:03:20;100950.78;;;11.56;76.46
52032;BME280;38044;45.148;39.604;2023-04-07T07:05:46;101040.75;;;12.03;75.98
52032;BME280;38044;45.148;39.604;2023-04-07T07:08:12;100913.78;;;11.18;76.48
52032;BME280;38044;45.148;39.604;2023-04-07T07:10:38;101014.50;;;11.89;76.40
52032;BME280;38044;45.148;39.604;2023-04-07T07:13:03;101026.50;;;12.21;76.38
52032;BME280;38044;45.148;39.604;2023-04-07T07:15:29;101010.91;;;12.18;75.65
52032;BME280;38044;45.148;39.604;2023-04-07T07:17:55;100886.88;;;11.42;75.25
52032;BME280;38044;45.148;39.604;2023-04-07T07:20:21;101031.00;;;12.45;75.25
52032;BME280;38044;45.148;39.604;2023-04-07T07:22:48;101014.63;;;12.41;75.57
52032;BME280;38044;45.148;39.604;2023-04-07T07:25:15;100934.78;;;12.07;75.07
52032;BME280;38044;45.148;39.604;2023-04-07T07:27:41;101036.41;;;12.82;74.52
52032;BME280;38044;45.148;39.604;2023-04-07T07:30:07;100971.88;;;12.34;74.39
52032;BME280;38044;45.148;39.604;2023-04-07T07:32:33;100913.81;;;11.85;74.17
52032;BME280;38044;45.148;39.604;2023-04-07T07:34:59;101034.38;;;12.74;74.77
52032;BME280;38044;45.148;39.604;2023-04-07T07:37:26;101007.00;;;12.81;75.20
52032;BME280;38044;45.148;39.604;2023-04-07T07:39:52;101005.47;;;13.07;75.01
52032;BME280;38044;45.148;39.604;2023-04-07T07:42:18;100901.28;;;12.65;73.79
52032;BME280;38044;45.148;39.604;2023-04-07T07:44:44;101020.41;;;13.65;73.46
52032;BME280;38044;45.148;39.604;2023-04-07T07:47:10;100933.66;;;13.25;72.59
52032;BME280;38044;45.148;39.604;2023-04-07T07:49:37;101038.59;;;14.01;72.20
52032;BME280;38044;45.148;39.604;2023-04-07T07:52:03;101030.97;;;14.03;71.04
52032;BME280;38044;45.148;39.604;2023-04-07T07:54:29;101039.00;;;14.08;70.80
52032;BME280;38044;45.148;39.604;2023-04-07T07:56:55;101034.56;;;14.12;70.62
52032;BME280;38044;45.148;39.604;2023-04-07T07:59:21;101037.66;;;14.19;70.64
52032;BME280;38044;45.148;39.604;2023-04-07T08:01:47;101029.41;;;14.38;70.50
52032;BME280;38044;45.148;39.604;2023-04-07T08:04:13;101012.41;;;14.24;69.23
52032;BME280;38044;45.148;39.604;2023-04-07T08:06:39;101038.44;;;14.34;69.36
52032;BME280;38044;45.148;39.604;2023-04-07T08:09:05;101011.09;;;14.22;68.98
52032;BME280;38044;45.148;39.604;2023-04-07T08:11:30;101007.97;;;13.92;69.09
52032;BME280;38044;45.148;39.604;2023-04-07T08:13:56;101043.28;;;14.09;69.06
52032;BME280;38044;45.148;39.604;2023-04-07T08:16:22;101048.25;;;14.30;68.79
52032;BME280;38044;45.148;39.604;2023-04-07T08:18:48;100832.75;;;13.07;68.31
52032;BME280;38044;45.148;39.604;2023-04-07T08:21:14;100970.41;;;14.04;67.84
52032;BME280;38044;45.148;39.604;2023-04-07T08:23:40;101018.81;;;14.28;68.31
52032;BME280;38044;45.148;39.604;2023-04-07T08:26:06;100986.22;;;14.11;68.11
52032;BME280;38044;45.148;39.604;2023-04-07T08:28:32;100998.56;;;14.39;68.64
52032;BME280;38044;45.148;39.604;2023-04-07T08:30:58;101039.00;;;14.58;67.91
52032;BME280;38044;45.148;39.604;2023-04-07T08:33:25;101000.19;;;14.27;68.14
52032;BME280;38044;45.148;39.604;2023-04-07T08:35:51;101034.13;;;14.33;67.98
52032;BME280;38044;45.148;39.604;2023-04-07T08:38:16;100922.03;;;13.52;68.46
52032;BME280;38044;45.148;39.604;2023-04-07T08:40:42;101043.25;;;14.37;68.03
52032;BME280;38044;45.148;39.604;2023-04-07T08:43:08;101038.00;;;14.40;68.26
52032;BME280;38044;45.148;39.604;2023-04-07T08:45:38;100999.31;;;14.17;67.97
52032;BME280;38044;45.148;39.604;2023-04-07T08:48:16;101030.13;;;14.30;67.85
52032;BME280;38044;45.148;39.604;2023-04-07T08:50:44;100961.63;;;13.85;67.99
52032;BME280;38044;45.148;39.604;2023-04-07T08:53:12;101001.50;;;14.15;68.28
52032;BME280;38044;45.148;39.604;2023-04-07T08:55:40;101051.72;;;14.44;68.63
52032;BME280;38044;45.148;39.604;2023-04-07T08:58:08;101026.88;;;14.42;67.68
52032;BME280;38044;45.148;39.604;2023-04-07T09:00:42;101049.09;;;14.67;67.41
52032;BME280;38044;45.148;39.604;2023-04-07T09:03:10;101019.06;;;14.54;67.43
52032;BME280;38044;45.148;39.604;2023-04-07T09:05:36;100992.94;;;14.36;68.50
52032;BME280;38044;45.148;39.604;2023-04-07T09:08:03;101053.25;;;14.73;67.89
52032;BME280;38044;45.148;39.604;2023-04-07T09:10:29;101040.47;;;14.64;68.29
52032;BME280;38044;45.148;39.604;2023-04-07T09:12:57;101039.00;;;14.81;68.00
52032;BME280;38044;45.148;39.604;2023-04-07T09:15:25;101041.72;;;14.81;67.48
52032;BME280;38044;45.148;39.604;2023-04-07T09:17:51;101040.13;;;14.80;67.49
52032;BME280;38044;45.148;39.604;2023-04-07T09:20:17;100920.59;;;14.19;67.52
52032;BME280;38044;45.148;39.604;2023-04-07T09:22:43;100940.22;;;14.47;68.42
52032;BME280;38044;45.148;39.604;2023-04-07T09:25:14;101034.59;;;15.16;67.30
52032;BME280;38044;45.148;39.604;2023-04-07T09:28:02;101038.44;;;15.46;67.96
52032;BME280;38044;45.148;39.604;2023-04-07T09:30:32;101028.88;;;15.49;67.96
52032;BME280;38044;45.148;39.604;2023-04-07T09:32:59;101015.78;;;15.42;67.92
52032;BME280;38044;45.148;39.604;2023-04-07T09:35:25;101030.31;;;15.77;67.53
52032;BME280;38044;45.148;39.604;2023-04-07T09:40:28;101033.81;;;15.78;67.09
52032;BME280;38044;45.148;39.604;2023-04-07T09:42:54;100961.13;;;15.40;66.88
52032;BME280;38044;45.148;39.604;2023-04-07T09:45:24;100997.50;;;15.57;66.86
52032;BME280;38044;45.148;39.604;2023-04-07T09:47:50;101037.28;;;15.70;67.23
52032;BME280;38044;45.148;39.604;2023-04-07T09:50:30;100920.38;;;15.05;67.09
52032;BME280;38044;45.148;39.604;2023-04-07T09:52:57;101033.66;;;15.43;67.53
52032;BME280;38044;45.148;39.604;2023-04-07T09:55:23;101034.81;;;15.51;67.18
52032;BME280;38044;45.148;39.604;2023-04-07T09:57:49;100988.31;;;15.26;67.27
52032;BME280;38044;45.148;39.604;2023-04-07T10:00:16;100962.53;;;15.29;67.17
52032;BME280;38044;45.148;39.604;2023-04-07T10:02:42;100924.88;;;15.19;66.39
52032;BME280;38044;45.148;39.604;2023-04-07T10:05:11;100996.50;;;15.75;66.15
52032;BME280;38044;45.148;39.604;2023-04-07T10:07:38;101024.81;;;16.09;65.94
52032;BME280;38044;45.148;39.604;2023-04-07T10:10:04;100937.75;;;15.62;65.22
52032;BME280;38044;45.148;39.604;2023-04-07T10:12:33;101029.59;;;16.29;65.01
52032;BME280;38044;45.148;39.604;2023-04-07T10:14:59;101028.47;;;16.30;65.18
52032;BME280;38044;45.148;39.604;2023-04-07T10:17:27;100928.72;;;15.75;64.70
52032;BME280;38044;45.148;39.604;2023-04-07T10:19:54;101033.59;;;16.40;64.84
52032;BME280;38044;45.148;39.604;2023-04-07T10:22:23;101026.56;;;16.22;65.24
52032;BME280;38044;45.148;39.604;2023-04-07T10:24:56;100910.25;;;15.68;65.65
52032;BME280;38044;45.148;39.604;2023-04-07T10:27:29;101033.59;;;16.40;64.91
52032;BME280;38044;45.148;39.604;2023-04-07T10:29:56;100939.53;;;15.66;64.80
52032;BME280;38044;45.148;39.604;2023-04-07T10:32:23;101010.13;;;16.18;63.61
52032;BME280;38044;45.148;39.604;2023-04-07T10:37:16;100993.66;;;15.97;63.88
52032;BME280;38044;45.148;39.604;2023-04-07T10:39:46;101025.75;;;16.21;64.12
52032;BME280;38044;45.148;39.604;2023-04-07T10:45:04;101016.19;;;16.33;64.23
52032;BME280;38044;45.148;39.604;2023-04-07T10:47:30;101013.50;;;16.41;64.76
52032;BME280;38044;45.148;39.604;2023-04-07T10:52:45;100979.00;;;15.98;65.08
52032;BME280;38044;45.148;39.604;2023-04-07T10:55:35;100990.63;;;16.08;64.86
52032;BME280;38044;45.148;39.604;2023-04-07T10:58:14;100942.72;;;15.60;65.10
52032;BME280;38044;45.148;39.604;2023-04-07T11:00:42;101019.94;;;15.80;64.96
52032;BME280;38044;45.148;39.604;2023-04-07T11:03:12;101025.03;;;15.81;64.99
52032;BME280;38044;45.148;39.604;2023-04-07T11:05:41;101023.22;;;15.68;64.88
52032;BME280;38044;45.148;39.604;2023-04-07T11:08:07;100952.25;;;15.08;66.35
52032;BME280;38044;45.148;39.604;2023-04-07T11:10:34;101030.50;;;15.59;65.39
52032;BME280;38044;45.148;39.604;2023-04-07T11:13:10;101038.63;;;15.59;65.39
52032;BME280;38044;45.148;39.604;2023-04-07T11:15:37;100999.59;;;15.20;65.64
52032;BME280;38044;45.148;39.604;2023-04-07T11:23:15;101033.28;;;15.36;65.50
52032;BME280;38044;45.148;39.604;2023-04-07T11:25:43;100948.31;;;14.47;66.64
52032;BME280;38044;45.148;39.604;2023-04-07T11:28:12;101041.28;;;14.87;66.69
52032;BME280;38044;45.148;39.604;2023-04-07T11:30:44;100901.50;;;14.15;66.61
52032;BME280;38044;45.148;39.604;2023-04-07T11:33:22;101003.25;;;14.93;66.69
52032;BME280;38044;45.148;39.604;2023-04-07T11:35:59;101027.44;;;15.12;66.53
52032;BME280;38044;45.148;39.604;2023-04-07T11:38:29;100930.50;;;14.46;66.87
52032;BME280;38044;45.148;39.604;2023-04-07T11:41:12;101028.16;;;15.26;67.61
52032;BME280;38044;45.148;39.604;2023-04-07T11:43:38;100982.66;;;14.83;67.19
52032;BME280;38044;45.148;39.604;2023-04-07T11:46:11;101029.38;;;15.20;68.17
52032;BME280;38044;45.148;39.604;2023-04-07T11:48:39;100992.13;;;14.94;68.00
52032;BME280;38044;45.148;39.604;2023-04-07T11:51:06;101024.97;;;15.01;68.73
52032;BME280;38044;45.148;39.604;2023-04-07T11:53:39;100896.81;;;14.07;69.54
52032;BME280;38044;45.148;39.604;2023-04-07T11:56:10;101022.66;;;14.86;70.36
52032;BME280;38044;45.148;39.604;2023-04-07T11:59:01;101035.91;;;14.96;70.28
52032;BME280;38044;45.148;39.604;2023-04-07T12:01:38;101017.00;;;14.74;71.59
52032;BME280;38044;45.148;39.604;2023-04-07T12:04:06;101022.09;;;14.75;70.55
52032;BME280;38044;45.148;39.604;2023-04-07T12:06:36;100891.84;;;14.01;71.53
52032;BME280;38044;45.148;39.604;2023-04-07T12:09:07;101009.13;;;14.86;70.90
52032;BME280;38044;45.148;39.604;2023-04-07T12:11:34;101012.78;;;14.90;70.62
52032;BME280;38044;45.148;39.604;2023-04-07T12:14:01;101015.13;;;15.05;71.50
52032;BME280;38044;45.148;39.604;2023-04-07T12:16:30;101007.22;;;15.18;71.65
52032;BME280;38044;45.148;39.604;2023-04-07T12:18:55;100973.41;;;15.06;70.90
52032;BME280;38044;45.148;39.604;2023-04-07T12:21:22;100966.88;;;15.07;70.87
52032;BME280;38044;45.148;39.604;2023-04-07T12:23:50;100996.97;;;15.37;70.78
52032;BME280;38044;45.148;39.604;2023-04-07T12:26:17;100980.72;;;15.37;71.06
52032;BME280;38044;45.148;39.604;2023-04-07T12:28:42;100898.78;;;14.83;70.92
52032;BME280;38044;45.148;39.604;2023-04-07T12:31:08;100966.81;;;15.30;70.94
52032;BME280;38044;45.148;39.604;2023-04-07T12:33:34;100865.81;;;14.81;71.02
52032;BME280;38044;45.148;39.604;2023-04-07T12:36:00;100933.56;;;15.38;70.15
52032;BME280;38044;45.148;39.604;2023-04-07T12:38:26;100990.78;;;15.85;69.82
52032;BME280;38044;45.148;39.604;2023-04-07T12:40:53;100993.03;;;15.92;69.94
52032;BME280;38044;45.148;39.604;2023-04-07T12:43:19;100992.06;;;15.96;69.89
52032;BME280;38044;45.148;39.604;2023-04-07T12:45:45;100860.03;;;15.14;68.98
52032;BME280;38044;45.148;39.604;2023-04-07T12:48:11;100990.16;;;15.88;68.66
52032;BME280;38044;45.148;39.604;2023-04-07T12:50:37;100824.09;;;14.82;68.87
52032;BME280;38044;45.148;39.604;2023-04-07T12:53:03;100982.81;;;15.80;68.76
52032;BME280;38044;45.148;39.604;2023-04-07T12:55:31;100859.53;;;15.03;69.49
52032;BME280;38044;45.148;39.604;2023-04-07T12:57:58;100855.22;;;15.10;69.22
52032;BME280;38044;45.148;39.604;2023-04-07T13:00:25;100952.84;;;15.85;69.50
52032;BME280;38044;45.148;39.604;2023-04-07T13:02:50;100845.72;;;15.30;68.58
52032;BME280;38044;45.148;39.604;2023-04-07T13:05:17;100827.25;;;15.32;68.32
52032;BME280;38044;45.148;39.604;2023-04-07T13:07:44;100874.03;;;15.82;67.67